This is the latest recevied weather packets stored in our database for station/object DB0RES-5. If no packets are shown the sender has not sent any weather packets the latest 10 day(s).
| Time | Temp. | Humidity | Pressure | Rain* | Wind** | Luminosity | Snow |
|---|---|---|---|---|---|---|---|
| 1777901149 | 18.89° C | 70% | 1014.3 hPa | 0 mm | - | - | - |
| 1777900546 | 18.89° C | 70% | 1014.5 hPa | 0 mm | - | - | - |
| 1777899944 | 19.44° C | 68% | 1014.5 hPa | 0 mm | - | - | - |
| 1777899341 | 18.89° C | 68% | 1014.4 hPa | 0 mm | - | - | - |
| 1777898739 | 18.33° C | 71% | 1014.5 hPa | 0 mm | - | - | - |
| 1777898136 | 18.33° C | 71% | 1014.4 hPa | 0 mm | - | - | - |
| 1777897533 | 18.89° C | 69% | 1014.4 hPa | 0 mm | - | - | - |
| 1777896931 | 18.89° C | 68% | 1014.5 hPa | 0 mm | - | - | - |
| 1777896328 | 18.89° C | 69% | 1014.4 hPa | 0 mm | - | - | - |
| 1777895726 | 19.44° C | 67% | 1014.5 hPa | 0 mm | - | - | - |
| 1777895123 | 19.44° C | 66% | 1014.5 hPa | 0 mm | - | - | - |
| 1777894521 | 19.44° C | 68% | 1014.7 hPa | 0 mm | - | - | - |
| 1777893918 | 18.89° C | 69% | 1014.7 hPa | 0 mm | - | - | - |
| 1777893315 | 19.44° C | 69% | 1014.7 hPa | 0 mm | - | - | - |
| 1777892773 | 18.89° C | 69% | 1014.8 hPa | 0 mm | - | - | - |
| 1777892170 | 18.89° C | 71% | 1014.8 hPa | 0 mm | - | - | - |
| 1777891568 | 18.89° C | 71% | 1014.9 hPa | 0 mm | - | - | - |
| 1777890965 | 18.33° C | 72% | 1015 hPa | 0 mm | - | - | - |
| 1777890363 | 18.33° C | 73% | 1015 hPa | 0 mm | - | - | - |
| 1777889760 | 17.78° C | 74% | 1015.1 hPa | 0 mm | - | - | - |
| 1777889157 | 17.78° C | 73% | 1015.1 hPa | 0 mm | - | - | - |
| 1777888554 | 17.78° C | 73% | 1015.2 hPa | 0 mm | - | - | - |
| 1777887951 | 17.78° C | 73% | 1015.1 hPa | 0 mm | - | - | - |
| 1777887348 | 17.22° C | 75% | 1015 hPa | 0 mm | - | - | - |
| 1777886745 | 16.67° C | 77% | 1015.1 hPa | 0 mm | - | - | - |
* Rain latest hour (hover to see other rain measurements)
** Current wind speed in m/s (hover to see current wind gust speed)